sensor_id;sensor_type;location;lat;lon;timestamp;P1;durP1;ratioP1;P2;durP2;ratioP2
4182;SDS011;2105;52.300;9.182;2022-11-20T00:01:26;17.87;;;12.60;;
4182;SDS011;2105;52.300;9.182;2022-11-20T00:03:53;26.87;;;12.73;;
4182;SDS011;2105;52.300;9.182;2022-11-20T00:06:21;16.03;;;11.00;;
4182;SDS011;2105;52.300;9.182;2022-11-20T00:08:48;10.63;;;9.73;;
4182;SDS011;2105;52.300;9.182;2022-11-20T00:11:19;12.83;;;10.03;;
4182;SDS011;2105;52.300;9.182;2022-11-20T00:13:47;11.87;;;9.67;;
4182;SDS011;2105;52.300;9.182;2022-11-20T00:16:15;10.37;;;9.47;;
4182;SDS011;2105;52.300;9.182;2022-11-20T00:18:43;9.80;;;8.83;;
4182;SDS011;2105;52.300;9.182;2022-11-20T00:21:11;9.33;;;8.43;;
4182;SDS011;2105;52.300;9.182;2022-11-20T00:23:41;10.00;;;9.00;;
4182;SDS011;2105;52.300;9.182;2022-11-20T00:26:09;8.83;;;8.13;;
4182;SDS011;2105;52.300;9.182;2022-11-20T00:28:38;9.00;;;8.30;;
4182;SDS011;2105;52.300;9.182;2022-11-20T00:31:06;9.27;;;8.47;;
4182;SDS011;2105;52.300;9.182;2022-11-20T00:33:33;9.93;;;8.43;;
4182;SDS011;2105;52.300;9.182;2022-11-20T00:36:01;8.50;;;7.80;;
4182;SDS011;2105;52.300;9.182;2022-11-20T00:38:28;8.40;;;7.80;;
4182;SDS011;2105;52.300;9.182;2022-11-20T00:40:56;9.03;;;8.23;;
4182;SDS011;2105;52.300;9.182;2022-11-20T00:43:23;9.83;;;8.93;;
4182;SDS011;2105;52.300;9.182;2022-11-20T00:45:55;8.20;;;7.50;;
4182;SDS011;2105;52.300;9.182;2022-11-20T00:48:22;8.10;;;7.40;;
4182;SDS011;2105;52.300;9.182;2022-11-20T00:50:49;8.10;;;7.60;;
4182;SDS011;2105;52.300;9.182;2022-11-20T00:53:17;8.47;;;7.90;;
4182;SDS011;2105;52.300;9.182;2022-11-20T00:55:51;8.50;;;7.80;;
4182;SDS011;2105;52.300;9.182;2022-11-20T00:58:19;8.20;;;7.43;;
4182;SDS011;2105;52.300;9.182;2022-11-20T01:00:46;8.10;;;7.50;;
4182;SDS011;2105;52.300;9.182;2022-11-20T01:03:16;7.80;;;7.20;;
4182;SDS011;2105;52.300;9.182;2022-11-20T01:05:43;8.63;;;7.67;;
4182;SDS011;2105;52.300;9.182;2022-11-20T01:08:10;7.40;;;6.90;;
4182;SDS011;2105;52.300;9.182;2022-11-20T01:10:37;8.00;;;7.50;;
4182;SDS011;2105;52.300;9.182;2022-11-20T01:13:04;8.00;;;7.30;;
4182;SDS011;2105;52.300;9.182;2022-11-20T01:15:49;7.90;;;7.30;;
4182;SDS011;2105;52.300;9.182;2022-11-20T01:18:18;7.97;;;7.30;;
4182;SDS011;2105;52.300;9.182;2022-11-20T01:20:45;10.97;;;8.87;;
4182;SDS011;2105;52.300;9.182;2022-11-20T01:23:13;9.23;;;7.47;;
4182;SDS011;2105;52.300;9.182;2022-11-20T01:25:40;8.20;;;7.43;;
4182;SDS011;2105;52.300;9.182;2022-11-20T01:28:07;9.40;;;8.50;;
4182;SDS011;2105;52.300;9.182;2022-11-20T01:30:34;8.83;;;8.00;;
4182;SDS011;2105;52.300;9.182;2022-11-20T01:33:01;8.77;;;8.17;;
4182;SDS011;2105;52.300;9.182;2022-11-20T01:35:30;9.43;;;8.53;;
4182;SDS011;2105;52.300;9.182;2022-11-20T01:37:57;9.00;;;8.40;;
4182;SDS011;2105;52.300;9.182;2022-11-20T01:40:25;9.87;;;9.00;;
4182;SDS011;2105;52.300;9.182;2022-11-20T01:42:53;9.10;;;8.40;;
4182;SDS011;2105;52.300;9.182;2022-11-20T01:48:29;10.00;;;9.20;;
4182;SDS011;2105;52.300;9.182;2022-11-20T01:50:59;9.70;;;9.07;;
4182;SDS011;2105;52.300;9.182;2022-11-20T01:53:28;10.40;;;9.50;;
4182;SDS011;2105;52.300;9.182;2022-11-20T01:55:58;10.07;;;9.37;;
4182;SDS011;2105;52.300;9.182;2022-11-20T01:58:27;10.00;;;9.30;;
4182;SDS011;2105;52.300;9.182;2022-11-20T02:00:55;10.80;;;9.90;;
4182;SDS011;2105;52.300;9.182;2022-11-20T02:03:22;10.00;;;9.30;;
4182;SDS011;2105;52.300;9.182;2022-11-20T02:05:51;11.07;;;10.17;;
4182;SDS011;2105;52.300;9.182;2022-11-20T02:08:20;9.13;;;8.53;;
4182;SDS011;2105;52.300;9.182;2022-11-20T02:10:48;10.13;;;9.43;;
4182;SDS011;2105;52.300;9.182;2022-11-20T02:13:15;9.83;;;9.13;;
4182;SDS011;2105;52.300;9.182;2022-11-20T02:16:00;10.37;;;9.67;;
4182;SDS011;2105;52.300;9.182;2022-11-20T02:18:27;10.00;;;9.30;;
4182;SDS011;2105;52.300;9.182;2022-11-20T02:20:56;10.30;;;9.50;;
4182;SDS011;2105;52.300;9.182;2022-11-20T02:23:27;10.43;;;9.60;;
4182;SDS011;2105;52.300;9.182;2022-11-20T02:26:00;10.10;;;9.27;;
4182;SDS011;2105;52.300;9.182;2022-11-20T02:28:27;9.80;;;9.17;;
4182;SDS011;2105;52.300;9.182;2022-11-20T02:30:54;10.10;;;9.23;;
4182;SDS011;2105;52.300;9.182;2022-11-20T02:33:22;10.40;;;9.70;;
4182;SDS011;2105;52.300;9.182;2022-11-20T02:35:49;10.17;;;9.47;;
4182;SDS011;2105;52.300;9.182;2022-11-20T02:38:16;9.90;;;9.30;;
4182;SDS011;2105;52.300;9.182;2022-11-20T02:40:43;10.30;;;9.60;;
4182;SDS011;2105;52.300;9.182;2022-11-20T02:43:12;10.47;;;9.57;;
4182;SDS011;2105;52.300;9.182;2022-11-20T02:45:39;9.80;;;9.20;;
4182;SDS011;2105;52.300;9.182;2022-11-20T02:48:06;10.43;;;9.73;;
4182;SDS011;2105;52.300;9.182;2022-11-20T02:50:36;10.63;;;9.80;;
4182;SDS011;2105;52.300;9.182;2022-11-20T02:53:03;10.43;;;9.60;;
4182;SDS011;2105;52.300;9.182;2022-11-20T02:55:31;10.60;;;9.87;;
4182;SDS011;2105;52.300;9.182;2022-11-20T02:57:58;10.60;;;9.80;;
4182;SDS011;2105;52.300;9.182;2022-11-20T03:00:26;11.67;;;10.23;;
4182;SDS011;2105;52.300;9.182;2022-11-20T03:02:54;10.53;;;9.83;;
4182;SDS011;2105;52.300;9.182;2022-11-20T03:05:21;12.03;;;11.13;;
4182;SDS011;2105;52.300;9.182;2022-11-20T03:07:48;11.40;;;10.67;;
4182;SDS011;2105;52.300;9.182;2022-11-20T03:10:15;11.83;;;10.93;;
4182;SDS011;2105;52.300;9.182;2022-11-20T03:12:43;11.27;;;10.57;;
4182;SDS011;2105;52.300;9.182;2022-11-20T03:15:10;11.33;;;10.63;;
4182;SDS011;2105;52.300;9.182;2022-11-20T03:17:39;11.77;;;10.97;;
4182;SDS011;2105;52.300;9.182;2022-11-20T03:20:06;12.23;;;11.43;;
4182;SDS011;2105;52.300;9.182;2022-11-20T03:22:34;11.17;;;10.47;;
4182;SDS011;2105;52.300;9.182;2022-11-20T03:25:01;12.07;;;10.97;;
4182;SDS011;2105;52.300;9.182;2022-11-20T03:27:31;13.07;;;11.73;;
4182;SDS011;2105;52.300;9.182;2022-11-20T03:29:58;12.00;;;11.20;;
4182;SDS011;2105;52.300;9.182;2022-11-20T03:32:25;11.50;;;10.70;;
4182;SDS011;2105;52.300;9.182;2022-11-20T03:34:54;11.60;;;10.80;;
4182;SDS011;2105;52.300;9.182;2022-11-20T03:37:21;11.07;;;10.40;;
4182;SDS011;2105;52.300;9.182;2022-11-20T03:39:48;11.47;;;10.73;;
4182;SDS011;2105;52.300;9.182;2022-11-20T03:42:16;12.53;;;11.37;;
4182;SDS011;2105;52.300;9.182;2022-11-20T03:45:00;12.10;;;10.97;;
4182;SDS011;2105;52.300;9.182;2022-11-20T03:47:28;11.67;;;10.63;;
4182;SDS011;2105;52.300;9.182;2022-11-20T03:49:56;11.80;;;10.80;;
4182;SDS011;2105;52.300;9.182;2022-11-20T03:52:23;11.60;;;10.80;;
4182;SDS011;2105;52.300;9.182;2022-11-20T03:54:51;12.00;;;11.20;;
4182;SDS011;2105;52.300;9.182;2022-11-20T03:57:18;11.23;;;10.53;;
4182;SDS011;2105;52.300;9.182;2022-11-20T03:59:45;11.30;;;10.37;;
4182;SDS011;2105;52.300;9.182;2022-11-20T04:02:12;10.57;;;9.73;;
4182;SDS011;2105;52.300;9.182;2022-11-20T04:04:39;11.20;;;10.30;;
4182;SDS011;2105;52.300;9.182;2022-11-20T04:07:08;11.00;;;10.10;;
4182;SDS011;2105;52.300;9.182;2022-11-20T04:09:35;11.43;;;10.53;;
4182;SDS011;2105;52.300;9.182;2022-11-20T04:12:02;11.63;;;10.73;;
4182;SDS011;2105;52.300;9.182;2022-11-20T04:14:30;10.43;;;9.73;;
4182;SDS011;2105;52.300;9.182;2022-11-20T04:16:57;11.37;;;10.57;;
4182;SDS011;2105;52.300;9.182;2022-11-20T04:19:24;10.93;;;10.03;;
4182;SDS011;2105;52.300;9.182;2022-11-20T04:21:51;10.60;;;9.80;;
4182;SDS011;2105;52.300;9.182;2022-11-20T04:24:20;15.03;;;10.20;;
4182;SDS011;2105;52.300;9.182;2022-11-20T04:26:47;10.87;;;10.07;;
4182;SDS011;2105;52.300;9.182;2022-11-20T04:29:14;10.80;;;10.00;;
4182;SDS011;2105;52.300;9.182;2022-11-20T04:31:41;10.37;;;9.57;;
4182;SDS011;2105;52.300;9.182;2022-11-20T04:34:10;10.10;;;9.40;;
4182;SDS011;2105;52.300;9.182;2022-11-20T04:36:38;11.27;;;10.30;;
4182;SDS011;2105;52.300;9.182;2022-11-20T04:39:05;11.23;;;10.33;;
4182;SDS011;2105;52.300;9.182;2022-11-20T04:41:35;11.70;;;10.70;;
4182;SDS011;2105;52.300;9.182;2022-11-20T04:44:04;12.30;;;11.30;;
4182;SDS011;2105;52.300;9.182;2022-11-20T04:46:32;12.53;;;11.40;;
4182;SDS011;2105;52.300;9.182;2022-11-20T04:49:00;12.43;;;11.40;;
4182;SDS011;2105;52.300;9.182;2022-11-20T04:51:27;12.33;;;11.23;;
4182;SDS011;2105;52.300;9.182;2022-11-20T04:53:54;12.10;;;11.00;;
4182;SDS011;2105;52.300;9.182;2022-11-20T04:56:21;11.40;;;10.60;;
4182;SDS011;2105;52.300;9.182;2022-11-20T04:58:50;10.70;;;9.90;;
4182;SDS011;2105;52.300;9.182;2022-11-20T05:01:18;10.77;;;9.73;;
4182;SDS011;2105;52.300;9.182;2022-11-20T05:03:45;11.73;;;10.63;;
4182;SDS011;2105;52.300;9.182;2022-11-20T05:06:13;11.67;;;10.47;;
4182;SDS011;2105;52.300;9.182;2022-11-20T05:08:40;12.90;;;10.17;;
4182;SDS011;2105;52.300;9.182;2022-11-20T05:11:08;10.37;;;9.57;;
4182;SDS011;2105;52.300;9.182;2022-11-20T05:13:35;10.00;;;9.20;;
4182;SDS011;2105;52.300;9.182;2022-11-20T05:16:05;9.73;;;8.93;;
4182;SDS011;2105;52.300;9.182;2022-11-20T05:18:32;10.37;;;9.57;;
4182;SDS011;2105;52.300;9.182;2022-11-20T05:21:00;9.43;;;8.73;;
4182;SDS011;2105;52.300;9.182;2022-11-20T05:23:27;9.43;;;8.77;;
4182;SDS011;2105;52.300;9.182;2022-11-20T05:25:56;8.67;;;8.07;;
4182;SDS011;2105;52.300;9.182;2022-11-20T05:28:24;10.70;;;8.87;;
4182;SDS011;2105;52.300;9.182;2022-11-20T05:30:51;9.90;;;9.10;;
4182;SDS011;2105;52.300;9.182;2022-11-20T05:33:20;10.40;;;8.80;;
4182;SDS011;2105;52.300;9.182;2022-11-20T05:35:47;12.00;;;9.20;;
4182;SDS011;2105;52.300;9.182;2022-11-20T05:38:14;10.37;;;9.57;;
4182;SDS011;2105;52.300;9.182;2022-11-20T05:40:41;10.20;;;9.40;;
4182;SDS011;2105;52.300;9.182;2022-11-20T05:43:08;10.90;;;10.10;;
4182;SDS011;2105;52.300;9.182;2022-11-20T05:45:35;11.63;;;10.73;;
4182;SDS011;2105;52.300;9.182;2022-11-20T05:48:02;12.20;;;11.20;;
4182;SDS011;2105;52.300;9.182;2022-11-20T05:50:31;12.30;;;11.10;;
4182;SDS011;2105;52.300;9.182;2022-11-20T05:52:58;12.27;;;11.17;;
4182;SDS011;2105;52.300;9.182;2022-11-20T05:55:25;11.77;;;10.77;;
4182;SDS011;2105;52.300;9.182;2022-11-20T05:57:53;11.50;;;10.50;;
4182;SDS011;2105;52.300;9.182;2022-11-20T06:00:20;11.60;;;10.60;;
4182;SDS011;2105;52.300;9.182;2022-11-20T06:02:47;11.13;;;10.20;;
4182;SDS011;2105;52.300;9.182;2022-11-20T06:05:14;12.10;;;11.10;;
4182;SDS011;2105;52.300;9.182;2022-11-20T06:07:43;12.60;;;11.50;;
4182;SDS011;2105;52.300;9.182;2022-11-20T06:10:10;12.30;;;11.33;;
4182;SDS011;2105;52.300;9.182;2022-11-20T06:12:37;11.63;;;10.83;;
4182;SDS011;2105;52.300;9.182;2022-11-20T06:15:05;12.17;;;11.20;;
4182;SDS011;2105;52.300;9.182;2022-11-20T06:17:32;12.03;;;11.13;;
4182;SDS011;2105;52.300;9.182;2022-11-20T06:19:59;13.03;;;11.93;;
4182;SDS011;2105;52.300;9.182;2022-11-20T06:22:26;13.70;;;11.97;;
4182;SDS011;2105;52.300;9.182;2022-11-20T06:24:55;13.13;;;12.00;;
4182;SDS011;2105;52.300;9.182;2022-11-20T06:27:22;12.87;;;11.70;;
4182;SDS011;2105;52.300;9.182;2022-11-20T06:29:49;13.37;;;12.20;;
4182;SDS011;2105;52.300;9.182;2022-11-20T06:32:16;12.53;;;11.47;;
4182;SDS011;2105;52.300;9.182;2022-11-20T06:34:43;13.33;;;12.13;;
4182;SDS011;2105;52.300;9.182;2022-11-20T06:37:10;13.80;;;12.40;;
4182;SDS011;2105;52.300;9.182;2022-11-20T06:39:37;14.10;;;12.87;;
4182;SDS011;2105;52.300;9.182;2022-11-20T06:42:06;16.33;;;14.83;;
4182;SDS011;2105;52.300;9.182;2022-11-20T06:44:33;15.33;;;13.83;;
4182;SDS011;2105;52.300;9.182;2022-11-20T06:47:00;15.97;;;14.40;;
4182;SDS011;2105;52.300;9.182;2022-11-20T06:49:27;15.87;;;14.30;;
4182;SDS011;2105;52.300;9.182;2022-11-20T06:51:54;16.47;;;14.87;;
4182;SDS011;2105;52.300;9.182;2022-11-20T06:54:21;17.10;;;15.33;;
4182;SDS011;2105;52.300;9.182;2022-11-20T06:56:48;15.77;;;14.37;;
4182;SDS011;2105;52.300;9.182;2022-11-20T06:59:17;14.80;;;13.47;;
4182;SDS011;2105;52.300;9.182;2022-11-20T07:01:44;15.00;;;13.70;;
4182;SDS011;2105;52.300;9.182;2022-11-20T07:04:11;14.33;;;12.90;;
4182;SDS011;2105;52.300;9.182;2022-11-20T07:06:38;14.27;;;13.00;;
4182;SDS011;2105;52.300;9.182;2022-11-20T07:09:05;14.23;;;12.90;;
4182;SDS011;2105;52.300;9.182;2022-11-20T07:11:33;15.37;;;13.37;;
4182;SDS011;2105;52.300;9.182;2022-11-20T07:14:00;14.60;;;13.30;;
4182;SDS011;2105;52.300;9.182;2022-11-20T07:16:28;15.20;;;13.93;;
4182;SDS011;2105;52.300;9.182;2022-11-20T07:18:55;15.60;;;14.20;;
4182;SDS011;2105;52.300;9.182;2022-11-20T07:21:22;17.60;;;15.80;;
4182;SDS011;2105;52.300;9.182;2022-11-20T07:23:49;16.97;;;15.00;;
4182;SDS011;2105;52.300;9.182;2022-11-20T07:26:17;16.90;;;15.20;;
4182;SDS011;2105;52.300;9.182;2022-11-20T07:28:44;17.43;;;15.83;;
4182;SDS011;2105;52.300;9.182;2022-11-20T07:31:12;16.97;;;15.27;;
4182;SDS011;2105;52.300;9.182;2022-11-20T07:33:40;15.03;;;13.83;;
4182;SDS011;2105;52.300;9.182;2022-11-20T07:36:07;15.63;;;14.33;;
4182;SDS011;2105;52.300;9.182;2022-11-20T07:38:34;21.90;;;17.63;;
4182;SDS011;2105;52.300;9.182;2022-11-20T07:41:02;21.20;;;19.07;;
4182;SDS011;2105;52.300;9.182;2022-11-20T07:43:29;20.70;;;18.73;;
4182;SDS011;2105;52.300;9.182;2022-11-20T07:45:56;19.90;;;17.90;;
4182;SDS011;2105;52.300;9.182;2022-11-20T07:48:23;18.90;;;17.10;;
4182;SDS011;2105;52.300;9.182;2022-11-20T07:50:54;20.07;;;17.97;;
4182;SDS011;2105;52.300;9.182;2022-11-20T07:53:21;21.77;;;18.67;;
4182;SDS011;2105;52.300;9.182;2022-11-20T07:55:48;22.13;;;19.27;;
4182;SDS011;2105;52.300;9.182;2022-11-20T07:58:17;20.60;;;18.37;;
4182;SDS011;2105;52.300;9.182;2022-11-20T08:00:44;22.33;;;19.80;;
4182;SDS011;2105;52.300;9.182;2022-11-20T08:03:11;30.60;;;22.07;;
4182;SDS011;2105;52.300;9.182;2022-11-20T08:05:39;22.20;;;19.50;;
4182;SDS011;2105;52.300;9.182;2022-11-20T08:08:07;21.40;;;19.10;;
4182;SDS011;2105;52.300;9.182;2022-11-20T08:10:35;20.60;;;18.33;;
4182;SDS011;2105;52.300;9.182;2022-11-20T08:13:02;21.23;;;19.07;;
4182;SDS011;2105;52.300;9.182;2022-11-20T08:15:48;21.90;;;19.60;;
4182;SDS011;2105;52.300;9.182;2022-11-20T08:18:16;22.23;;;19.93;;
4182;SDS011;2105;52.300;9.182;2022-11-20T08:20:43;21.70;;;19.40;;
4182;SDS011;2105;52.300;9.182;2022-11-20T08:23:12;21.13;;;18.17;;
4182;SDS011;2105;52.300;9.182;2022-11-20T08:25:39;20.00;;;17.93;;
4182;SDS011;2105;52.300;9.182;2022-11-20T08:28:08;20.30;;;18.10;;
4182;SDS011;2105;52.300;9.182;2022-11-20T08:30:35;20.30;;;18.13;;
4182;SDS011;2105;52.300;9.182;2022-11-20T08:33:03;22.53;;;19.77;;
4182;SDS011;2105;52.300;9.182;2022-11-20T08:35:32;21.30;;;18.10;;
4182;SDS011;2105;52.300;9.182;2022-11-20T08:37:59;20.83;;;18.73;;
4182;SDS011;2105;52.300;9.182;2022-11-20T08:40:28;21.57;;;19.37;;
4182;SDS011;2105;52.300;9.182;2022-11-20T08:42:55;23.60;;;19.20;;
4182;SDS011;2105;52.300;9.182;2022-11-20T08:45:23;21.97;;;19.73;;
4182;SDS011;2105;52.300;9.182;2022-11-20T08:47:50;22.03;;;19.83;;
4182;SDS011;2105;52.300;9.182;2022-11-20T08:50:17;21.63;;;19.40;;
4182;SDS011;2105;52.300;9.182;2022-11-20T08:52:44;20.70;;;18.70;;
4182;SDS011;2105;52.300;9.182;2022-11-20T08:55:12;27.40;;;18.30;;
4182;SDS011;2105;52.300;9.182;2022-11-20T08:57:40;20.77;;;18.57;;
4182;SDS011;2105;52.300;9.182;2022-11-20T09:00:09;21.00;;;18.90;;
4182;SDS011;2105;52.300;9.182;2022-11-20T09:02:37;21.33;;;19.03;;
4182;SDS011;2105;52.300;9.182;2022-11-20T09:05:04;22.43;;;19.37;;
4182;SDS011;2105;52.300;9.182;2022-11-20T09:07:31;25.83;;;20.70;;
4182;SDS011;2105;52.300;9.182;2022-11-20T09:09:59;21.93;;;19.43;;
4182;SDS011;2105;52.300;9.182;2022-11-20T09:12:26;21.57;;;19.37;;
4182;SDS011;2105;52.300;9.182;2022-11-20T09:14:54;22.83;;;20.27;;
4182;SDS011;2105;52.300;9.182;2022-11-20T09:17:21;20.83;;;18.73;;
4182;SDS011;2105;52.300;9.182;2022-11-20T09:19:49;21.00;;;18.87;;
4182;SDS011;2105;52.300;9.182;2022-11-20T09:22:16;21.43;;;19.53;;
4182;SDS011;2105;52.300;9.182;2022-11-20T09:24:43;22.57;;;20.13;;
4182;SDS011;2105;52.300;9.182;2022-11-20T09:27:10;21.77;;;19.67;;
4182;SDS011;2105;52.300;9.182;2022-11-20T09:29:37;21.03;;;18.93;;
4182;SDS011;2105;52.300;9.182;2022-11-20T09:32:06;20.80;;;18.90;;
4182;SDS011;2105;52.300;9.182;2022-11-20T09:34:33;20.33;;;18.43;;
4182;SDS011;2105;52.300;9.182;2022-11-20T09:37:00;20.53;;;18.57;;
4182;SDS011;2105;52.300;9.182;2022-11-20T09:39:28;22.43;;;20.20;;
4182;SDS011;2105;52.300;9.182;2022-11-20T09:42:04;22.83;;;20.70;;
4182;SDS011;2105;52.300;9.182;2022-11-20T09:44:48;23.13;;;20.93;;
4182;SDS011;2105;52.300;9.182;2022-11-20T09:47:21;23.30;;;20.80;;
4182;SDS011;2105;52.300;9.182;2022-11-20T09:49:58;24.17;;;20.73;;
4182;SDS011;2105;52.300;9.182;2022-11-20T09:52:30;23.73;;;21.30;;
4182;SDS011;2105;52.300;9.182;2022-11-20T09:55:00;25.83;;;20.70;;
4182;SDS011;2105;52.300;9.182;2022-11-20T09:57:29;24.30;;;21.80;;
4182;SDS011;2105;52.300;9.182;2022-11-20T09:59:59;25.83;;;22.27;;
4182;SDS011;2105;52.300;9.182;2022-11-20T10:02:29;23.70;;;21.30;;
4182;SDS011;2105;52.300;9.182;2022-11-20T10:04:58;24.43;;;22.03;;
4182;SDS011;2105;52.300;9.182;2022-11-20T10:07:30;23.40;;;21.00;;
4182;SDS011;2105;52.300;9.182;2022-11-20T10:09:59;25.13;;;21.20;;
4182;SDS011;2105;52.300;9.182;2022-11-20T10:12:28;35.33;;;21.27;;
4182;SDS011;2105;52.300;9.182;2022-11-20T10:18:01;26.47;;;23.63;;
4182;SDS011;2105;52.300;9.182;2022-11-20T10:20:33;30.00;;;22.80;;
4182;SDS011;2105;52.300;9.182;2022-11-20T10:23:11;25.20;;;22.60;;
4182;SDS011;2105;52.300;9.182;2022-11-20T10:25:40;26.50;;;22.70;;
4182;SDS011;2105;52.300;9.182;2022-11-20T10:28:17;27.40;;;22.87;;
4182;SDS011;2105;52.300;9.182;2022-11-20T10:30:55;26.30;;;22.30;;
4182;SDS011;2105;52.300;9.182;2022-11-20T10:33:25;26.27;;;22.70;;
4182;SDS011;2105;52.300;9.182;2022-11-20T10:35:54;25.67;;;22.23;;
4182;SDS011;2105;52.300;9.182;2022-11-20T10:38:23;25.03;;;22.17;;
4182;SDS011;2105;52.300;9.182;2022-11-20T10:40:52;26.27;;;23.47;;
4182;SDS011;2105;52.300;9.182;2022-11-20T10:43:42;25.50;;;22.57;;
4182;SDS011;2105;52.300;9.182;2022-11-20T10:46:10;24.97;;;22.27;;
4182;SDS011;2105;52.300;9.182;2022-11-20T10:48:40;25.20;;;22.03;;
4182;SDS011;2105;52.300;9.182;2022-11-20T10:51:15;26.37;;;22.77;;
4182;SDS011;2105;52.300;9.182;2022-11-20T10:53:53;26.53;;;22.77;;
4182;SDS011;2105;52.300;9.182;2022-11-20T10:56:22;25.67;;;22.77;;
4182;SDS011;2105;52.300;9.182;2022-11-20T10:59:02;30.20;;;23.33;;
4182;SDS011;2105;52.300;9.182;2022-11-20T11:01:30;27.63;;;23.13;;
4182;SDS011;2105;52.300;9.182;2022-11-20T11:03:58;24.30;;;21.67;;
4182;SDS011;2105;52.300;9.182;2022-11-20T11:06:28;28.70;;;23.53;;
4182;SDS011;2105;52.300;9.182;2022-11-20T11:08:56;28.17;;;23.23;;
4182;SDS011;2105;52.300;9.182;2022-11-20T11:11:26;26.37;;;23.53;;
4182;SDS011;2105;52.300;9.182;2022-11-20T11:14:03;27.20;;;22.73;;
4182;SDS011;2105;52.300;9.182;2022-11-20T11:16:30;27.13;;;23.90;;
4182;SDS011;2105;52.300;9.182;2022-11-20T11:19:04;26.77;;;23.83;;
4182;SDS011;2105;52.300;9.182;2022-11-20T11:21:32;27.20;;;23.10;;
4182;SDS011;2105;52.300;9.182;2022-11-20T11:24:00;27.30;;;24.03;;
4182;SDS011;2105;52.300;9.182;2022-11-20T11:26:27;27.60;;;23.00;;
4182;SDS011;2105;52.300;9.182;2022-11-20T11:28:55;28.57;;;23.77;;
4182;SDS011;2105;52.300;9.182;2022-11-20T11:31:23;26.70;;;23.80;;
4182;SDS011;2105;52.300;9.182;2022-11-20T11:33:50;27.23;;;24.30;;
4182;SDS011;2105;52.300;9.182;2022-11-20T11:36:19;30.23;;;25.47;;
4182;SDS011;2105;52.300;9.182;2022-11-20T11:38:48;27.20;;;23.83;;
4182;SDS011;2105;52.300;9.182;2022-11-20T11:41:17;27.07;;;23.93;;
4182;SDS011;2105;52.300;9.182;2022-11-20T11:43:49;27.90;;;23.77;;
4182;SDS011;2105;52.300;9.182;2022-11-20T11:46:35;26.60;;;23.70;;
4182;SDS011;2105;52.300;9.182;2022-11-20T11:49:11;26.30;;;23.50;;
4182;SDS011;2105;52.300;9.182;2022-11-20T11:51:46;26.27;;;23.47;;
4182;SDS011;2105;52.300;9.182;2022-11-20T11:54:24;27.43;;;23.00;;
4182;SDS011;2105;52.300;9.182;2022-11-20T11:56:54;25.50;;;22.40;;
4182;SDS011;2105;52.300;9.182;2022-11-20T11:59:23;25.07;;;22.43;;
4182;SDS011;2105;52.300;9.182;2022-11-20T12:01:54;26.77;;;23.87;;
4182;SDS011;2105;52.300;9.182;2022-11-20T12:04:27;25.73;;;23.00;;
4182;SDS011;2105;52.300;9.182;2022-11-20T12:07:10;26.47;;;22.90;;
4182;SDS011;2105;52.300;9.182;2022-11-20T12:09:43;30.40;;;24.10;;
4182;SDS011;2105;52.300;9.182;2022-11-20T12:12:15;27.03;;;24.10;;
4182;SDS011;2105;52.300;9.182;2022-11-20T12:14:47;26.90;;;22.53;;
4182;SDS011;2105;52.300;9.182;2022-11-20T12:17:17;25.80;;;23.17;;
4182;SDS011;2105;52.300;9.182;2022-11-20T12:19:44;26.63;;;23.80;;
4182;SDS011;2105;52.300;9.182;2022-11-20T12:22:16;29.77;;;24.13;;
4182;SDS011;2105;52.300;9.182;2022-11-20T12:24:55;33.50;;;25.13;;
4182;SDS011;2105;52.300;9.182;2022-11-20T12:27:32;28.30;;;24.30;;
4182;SDS011;2105;52.300;9.182;2022-11-20T12:30:16;28.60;;;23.93;;
4182;SDS011;2105;52.300;9.182;2022-11-20T12:32:57;32.60;;;24.50;;
4182;SDS011;2105;52.300;9.182;2022-11-20T12:35:42;27.60;;;24.30;;
4182;SDS011;2105;52.300;9.182;2022-11-20T12:41:15;24.37;;;22.07;;
4182;SDS011;2105;52.300;9.182;2022-11-20T12:44:13;24.53;;;22.03;;
4182;SDS011;2105;52.300;9.182;2022-11-20T12:47:09;24.00;;;21.60;;
4182;SDS011;2105;52.300;9.182;2022-11-20T12:49:45;25.27;;;22.87;;
4182;SDS011;2105;52.300;9.182;2022-11-20T12:55:16;24.07;;;21.77;;
4182;SDS011;2105;52.300;9.182;2022-11-20T12:57:50;24.77;;;22.47;;
4182;SDS011;2105;52.300;9.182;2022-11-20T13:00:21;26.30;;;23.70;;
4182;SDS011;2105;52.300;9.182;2022-11-20T13:05:55;25.10;;;22.60;;
4182;SDS011;2105;52.300;9.182;2022-11-20T13:08:30;25.37;;;22.90;;
4182;SDS011;2105;52.300;9.182;2022-11-20T13:11:03;23.73;;;21.53;;
4182;SDS011;2105;52.300;9.182;2022-11-20T13:13:41;26.00;;;23.70;;
4182;SDS011;2105;52.300;9.182;2022-11-20T13:16:15;24.00;;;21.80;;
4182;SDS011;2105;52.300;9.182;2022-11-20T13:18:46;24.30;;;21.90;;
4182;SDS011;2105;52.300;9.182;2022-11-20T13:21:13;24.57;;;22.07;;
4182;SDS011;2105;52.300;9.182;2022-11-20T13:23:41;25.53;;;21.87;;
4182;SDS011;2105;52.300;9.182;2022-11-20T13:26:15;24.47;;;22.17;;
4182;SDS011;2105;52.300;9.182;2022-11-20T13:28:46;23.73;;;21.43;;
4182;SDS011;2105;52.300;9.182;2022-11-20T13:31:28;24.80;;;22.53;;
4182;SDS011;2105;52.300;9.182;2022-11-20T13:34:00;24.40;;;22.00;;
4182;SDS011;2105;52.300;9.182;2022-11-20T13:36:29;25.23;;;22.60;;
4182;SDS011;2105;52.300;9.182;2022-11-20T13:38:57;23.93;;;21.50;;
4182;SDS011;2105;52.300;9.182;2022-11-20T13:41:27;25.30;;;22.70;;
4182;SDS011;2105;52.300;9.182;2022-11-20T13:44:04;24.63;;;22.30;;
4182;SDS011;2105;52.300;9.182;2022-11-20T13:46:37;23.73;;;21.40;;
4182;SDS011;2105;52.300;9.182;2022-11-20T13:49:07;23.20;;;20.90;;
4182;SDS011;2105;52.300;9.182;2022-11-20T13:51:37;23.17;;;20.87;;
4182;SDS011;2105;52.300;9.182;2022-11-20T13:57:26;22.60;;;20.43;;
4182;SDS011;2105;52.300;9.182;2022-11-20T14:00:12;23.83;;;21.63;;
4182;SDS011;2105;52.300;9.182;2022-11-20T14:02:40;24.07;;;21.67;;
4182;SDS011;2105;52.300;9.182;2022-11-20T14:05:13;23.67;;;21.37;;
4182;SDS011;2105;52.300;9.182;2022-11-20T14:07:46;23.37;;;21.17;;
4182;SDS011;2105;52.300;9.182;2022-11-20T14:10:23;23.27;;;21.10;;
4182;SDS011;2105;52.300;9.182;2022-11-20T14:12:52;22.80;;;20.70;;
4182;SDS011;2105;52.300;9.182;2022-11-20T14:15:23;24.40;;;22.20;;
4182;SDS011;2105;52.300;9.182;2022-11-20T14:17:51;23.03;;;20.83;;
4182;SDS011;2105;52.300;9.182;2022-11-20T14:20:18;24.50;;;22.20;;
4182;SDS011;2105;52.300;9.182;2022-11-20T14:22:48;23.57;;;21.27;;
4182;SDS011;2105;52.300;9.182;2022-11-20T14:25:19;23.17;;;20.90;;
4182;SDS011;2105;52.300;9.182;2022-11-20T14:27:50;24.60;;;22.10;;
4182;SDS011;2105;52.300;9.182;2022-11-20T14:30:20;23.60;;;21.30;;
4182;SDS011;2105;52.300;9.182;2022-11-20T14:32:49;23.50;;;21.30;;
4182;SDS011;2105;52.300;9.182;2022-11-20T14:35:18;23.63;;;21.33;;
4182;SDS011;2105;52.300;9.182;2022-11-20T14:37:47;24.43;;;21.93;;
4182;SDS011;2105;52.300;9.182;2022-11-20T14:40:24;41.77;;;28.20;;
4182;SDS011;2105;52.300;9.182;2022-11-20T14:42:55;28.50;;;23.57;;
4182;SDS011;2105;52.300;9.182;2022-11-20T14:45:22;23.50;;;21.20;;
4182;SDS011;2105;52.300;9.182;2022-11-20T14:47:50;25.80;;;23.03;;
4182;SDS011;2105;52.300;9.182;2022-11-20T14:50:21;24.70;;;22.10;;
4182;SDS011;2105;52.300;9.182;2022-11-20T14:52:49;24.30;;;21.80;;
4182;SDS011;2105;52.300;9.182;2022-11-20T14:55:28;23.53;;;21.13;;
4182;SDS011;2105;52.300;9.182;2022-11-20T14:57:58;21.00;;;19.03;;
4182;SDS011;2105;52.300;9.182;2022-11-20T15:00:27;21.87;;;19.70;;
4182;SDS011;2105;52.300;9.182;2022-11-20T15:02:54;21.30;;;19.20;;
4182;SDS011;2105;52.300;9.182;2022-11-20T15:05:22;21.47;;;19.43;;
4182;SDS011;2105;52.300;9.182;2022-11-20T15:07:52;21.27;;;19.17;;
4182;SDS011;2105;52.300;9.182;2022-11-20T15:10:31;20.33;;;18.40;;
4182;SDS011;2105;52.300;9.182;2022-11-20T15:13:00;22.27;;;19.07;;
4182;SDS011;2105;52.300;9.182;2022-11-20T15:15:32;20.10;;;18.00;;
4182;SDS011;2105;52.300;9.182;2022-11-20T15:18:01;20.50;;;18.30;;
4182;SDS011;2105;52.300;9.182;2022-11-20T15:20:30;17.33;;;15.63;;
4182;SDS011;2105;52.300;9.182;2022-11-20T15:22:58;19.17;;;15.23;;
4182;SDS011;2105;52.300;9.182;2022-11-20T15:25:25;18.17;;;16.00;;